Time;durP1;ratioP1;P1;durP2;ratioP2;P2;SDS_P1;SDS_P2;PMS_P1;PMS_P2;Temp;Humidity;BMP_temperature;BMP_pressure;BME280_temperature;BME280_humidity;BME280_pressure;Samples;Min_cycle;Max_cycle;Signal;HPM_P1;HPM_P2
2023/03/16 00:00:51;;;;;;;;;;;;;;;;;;;;;
2023/03/16 00:03:29;;;;;;;73.53;9.70;;;3.20;99.90;;;;;;4979623;28;20746;-86
2023/03/16 00:06:42;;;;;;;70.40;8.68;;;3.30;99.90;;;;;;4997720;28;20239;-86
2023/03/16 00:12:57;;;;;;;70.90;10.20;;;3.20;99.90;;;;;;5019110;28;20598;-86
2023/03/16 00:18:47;;;;;;;69.57;9.95;;;3.20;99.90;;;;;;4974785;28;20194;-87
2023/03/16 00:21:54;;;;;;;;;;;;;;;;;;;;;
2023/03/16 00:25:20;;;;;;;;;;;;;;;;;;;;;
2023/03/16 00:28:30;;;;;;;;;;;;;;;;;;;;;
2023/03/16 00:37:36;;;;;;;76.22;16.50;;;3.20;99.90;;;;;;4958375;28;20180;-86
2023/03/16 00:40:55;;;;;;;76.10;21.92;;;3.00;99.90;;;;;;4941242;29;20191;-86
2023/03/16 00:44:08;;;;;;;72.32;19.73;;;3.00;99.90;;;;;;4923105;28;20610;-86
2023/03/16 00:47:24;;;;;;;75.15;20.45;;;2.90;99.90;;;;;;4990903;28;20272;-86
2023/03/16 01:12:40;;;;;;;73.07;10.38;;;3.30;99.90;;;;;;5036466;28;20208;-86
2023/03/16 01:15:25;;;;;;;69.85;9.43;;;3.30;99.90;;;;;;5038574;28;20204;-86
2023/03/16 01:18:02;;;;;;;68.70;9.25;;;3.30;99.90;;;;;;5058342;28;20145;-86
2023/03/16 01:21:03;;;;;;;70.78;10.20;;;3.30;99.90;;;;;;5037796;28;20172;-86
2023/03/16 01:24:45;;;;;;;;;;;;;;;;;;;;;
2023/03/16 01:27:57;;;;;;;78.40;10.50;;;3.30;99.90;;;;;;4994859;28;20171;-86
2023/03/16 01:30:54;;;;;;;70.90;14.50;;;3.30;99.90;;;;;;4993735;28;20261;-86
2023/03/16 01:33:49;;;;;;;73.35;15.05;;;3.20;99.90;;;;;;4980494;28;20546;-86
2023/03/16 01:36:40;;;;;;;71.25;16.75;;;3.20;99.90;;;;;;4983627;28;20174;-85
2023/03/16 01:39:39;;;;;;;71.32;17.45;;;3.30;99.90;;;;;;5050288;28;20226;-86
2023/03/16 01:46:28;;;;;;;72.90;14.50;;;3.30;99.90;;;;;;5047664;28;20207;-86
2023/03/16 01:49:12;;;;;;;72.55;17.08;;;3.30;99.90;;;;;;5043398;28;20178;-86
2023/03/16 01:52:32;;;;;;;73.32;15.80;;;3.30;99.90;;;;;;5040878;28;20171;-85
2023/03/16 01:55:43;;;;;;;70.35;15.18;;;3.30;99.90;;;;;;5039592;28;20236;-86
2023/03/16 01:59:06;;;;;;;71.50;16.75;;;3.30;99.90;;;;;;4999746;28;20173;-86
2023/03/16 02:01:49;;;;;;;70.25;14.73;;;3.30;99.90;;;;;;4997635;28;20170;-86
2023/03/16 02:08:06;;;;;;;71.03;13.45;;;3.30;99.90;;;;;;5041404;28;20173;-86
2023/03/16 02:11:04;;;;;;;70.20;11.73;;;3.30;99.90;;;;;;5030894;28;20192;-86
2023/03/16 02:14:08;;;;;;;71.32;14.15;;;3.30;99.90;;;;;;5035285;28;20197;-86
2023/03/16 02:23:50;;;;;;;77.55;14.18;;;3.30;99.90;;;;;;4938246;29;20196;-86
2023/03/16 02:34:18;;;;;;;73.00;18.95;;;3.20;99.90;;;;;;4947524;28;20777;-86
2023/03/16 02:37:18;;;;;;;;;;;;;;;;;;;;;
2023/03/16 02:41:22;;;;;;;74.25;18.42;;;3.20;99.30;;;;;;4920307;29;20721;-86
2023/03/16 02:44:23;;;;;;;73.00;14.85;;;3.20;98.20;;;;;;4860041;29;20199;-86
2023/03/16 02:47:43;;;;;;;;;;;;;;;;;;;;;
2023/03/16 02:51:30;;;;;;;70.05;11.65;;;3.20;95.80;;;;;;4879417;29;20274;-86
2023/03/16 02:53:53;;;;;;;67.55;11.85;;;3.20;95.70;;;;;;4854990;29;20722;-86
2023/03/16 03:00:35;;;;;;;69.50;9.07;;;3.20;95.20;;;;;;4920414;29;20221;-86
2023/03/16 03:03:43;;;;;;;;;;;;;;;;;;;;;
2023/03/16 03:06:41;;;;;;;67.25;7.55;;;3.20;96.00;;;;;;5030073;28;20255;-86
2023/03/16 03:19:49;;;;;;;70.15;10.15;;;3.20;99.90;;;;;;4908141;29;20215;-86
2023/03/16 03:23:22;;;;;;;68.88;10.65;;;3.20;99.90;;;;;;4922880;29;20205;-86
2023/03/16 03:29:15;;;;;;;73.60;16.23;;;3.20;99.90;;;;;;4916287;28;20175;-86
2023/03/16 03:32:27;;;;;;;72.38;17.50;;;3.20;99.90;;;;;;4962851;28;20262;-85
2023/03/16 03:36:05;;;;;;;70.20;15.40;;;3.20;99.90;;;;;;4865698;29;20278;-86
2023/03/16 03:38:51;;;;;;;;;;;;;;;;;;;;;
2023/03/16 03:41:58;;;;;;;71.75;11.15;;;3.20;99.90;;;;;;4960093;29;20257;-86
2023/03/16 03:45:06;;;;;;;71.60;16.35;;;3.20;99.90;;;;;;4959701;29;20179;-86
2023/03/16 03:48:32;;;;;;;69.95;15.02;;;3.20;99.90;;;;;;4943397;29;20176;-86
2023/03/16 03:52:03;;;;;;;;;;;;;;;;;;;;;
2023/03/16 03:55:04;;;;;;;;;;;;;;;;;;;;;
2023/03/16 03:58:02;;;;;;;;;;;;;;;;;;;;;
2023/03/16 04:01:22;;;;;;;69.13;14.45;;;3.20;99.50;;;;;;5041460;28;20248;-86
2023/03/16 04:04:21;;;;;;;69.88;15.38;;;3.20;99.90;;;;;;5039074;28;20248;-86
2023/03/16 04:07:48;;;;;;;72.20;18.73;;;3.20;99.90;;;;;;5018929;28;20598;-86
2023/03/16 04:10:45;;;;;;;73.70;16.55;;;3.20;99.40;;;;;;4998685;28;20187;-86
2023/03/16 04:14:22;;;;;;;71.03;13.73;;;3.20;99.80;;;;;;4998864;28;20741;-86
2023/03/16 04:21:05;;;;;;;;;;;;;;;;;;;;;
2023/03/16 04:57:52;;;;;;;71.88;14.70;;;3.30;99.90;;;;;;1075899;26;20500;-87
2023/03/16 05:01:02;;;;;;;;;;;;;;;;;;;;;
2023/03/16 05:04:24;;;;;;;72.38;14.20;;;3.40;99.90;;;;;;5018154;28;20253;-87
2023/03/16 05:13:58;;;;;;;;;;;;;;;;;;;;;
2023/03/16 05:20:44;;;;;;;73.47;21.67;;;3.50;99.90;;;;;;4940137;29;20322;-87
2023/03/16 05:23:43;;;;;;;;;;;;;;;;;;;;;
2023/03/16 05:26:46;;;;;;;;;;;;;;;;;;;;;
2023/03/16 05:30:32;;;;;;;73.65;16.67;;;3.50;99.90;;;;;;5019257;28;20276;-87
2023/03/16 05:42:28;;;;;;;74.10;18.60;;;3.60;98.70;;;;;;5118888;23;20289;-79
2023/03/16 05:44:53;;;;;;;75.73;19.67;;;3.60;98.30;;;;;;5057450;28;20164;-79
2023/03/16 05:47:19;;;;;;;73.63;19.00;;;3.60;98.10;;;;;;5056500;28;20191;-79
2023/03/16 05:49:45;;;;;;;72.15;16.25;;;3.60;97.90;;;;;;5056972;28;20709;-79
2023/03/16 05:52:11;;;;;;;72.47;18.07;;;3.60;97.90;;;;;;5057477;28;20188;-79
2023/03/16 05:54:37;;;;;;;74.33;18.03;;;3.60;97.40;;;;;;5051575;28;20215;-79
2023/03/16 05:57:05;;;;;;;74.40;15.97;;;3.60;96.90;;;;;;5056419;28;20408;-79
2023/03/16 05:59:31;;;;;;;71.78;16.95;;;3.60;97.10;;;;;;5056940;28;20647;-79
2023/03/16 06:01:57;;;;;;;70.97;12.23;;;3.60;96.20;;;;;;5056315;28;20160;-79
2023/03/16 06:04:22;;;;;;;70.87;13.67;;;3.70;95.10;;;;;;5056716;28;20434;-79
2023/03/16 06:06:48;;;;;;;72.50;13.07;;;3.70;94.70;;;;;;5053674;28;20172;-79
2023/03/16 06:09:13;;;;;;;71.90;12.27;;;3.70;95.10;;;;;;5056546;28;20172;-80
2023/03/16 06:11:39;;;;;;;71.07;13.07;;;3.70;94.40;;;;;;5056203;28;20201;-79
2023/03/16 06:14:05;;;;;;;71.77;11.50;;;3.70;93.90;;;;;;5056404;28;20563;-79
2023/03/16 06:16:30;;;;;;;72.20;13.83;;;3.70;92.50;;;;;;5056399;28;20167;-79
2023/03/16 06:18:56;;;;;;;70.87;11.17;;;3.80;91.30;;;;;;5055820;28;20576;-79
2023/03/16 06:21:22;;;;;;;72.23;11.57;;;3.80;90.80;;;;;;5055903;28;20168;-79
2023/03/16 06:23:48;;;;;;;75.15;8.45;;;3.80;90.30;;;;;;5055891;28;20185;-79
2023/03/16 06:26:16;;;;;;;70.40;11.30;;;3.90;91.20;;;;;;5055929;28;20164;-79
2023/03/16 06:28:42;;;;;;;70.28;10.57;;;3.90;90.50;;;;;;5052077;28;20270;-79
2023/03/16 06:31:08;;;;;;;71.50;9.80;;;4.00;91.50;;;;;;5056163;28;20160;-79
2023/03/16 06:33:33;;;;;;;71.23;10.87;;;4.00;92.00;;;;;;5055428;28;20191;-79
2023/03/16 06:36:00;;;;;;;72.73;11.70;;;4.00;92.90;;;;;;5055543;28;20218;-79
2023/03/16 06:38:26;;;;;;;76.03;15.07;;;4.00;93.80;;;;;;5055536;28;20247;-79
2023/03/16 06:40:53;;;;;;;71.17;10.77;;;4.10;94.20;;;;;;5056314;28;20204;-79
2023/03/16 06:43:19;;;;;;;73.43;10.10;;;4.10;93.60;;;;;;5055431;28;20196;-79
2023/03/16 06:45:45;;;;;;;70.83;10.50;;;4.10;94.00;;;;;;5055879;28;20535;-79
2023/03/16 06:48:10;;;;;;;72.50;11.10;;;4.20;94.80;;;;;;5047228;28;20172;-79
2023/03/16 06:50:36;;;;;;;71.97;9.40;;;4.20;94.60;;;;;;5055926;28;20171;-79
2023/03/16 06:53:02;;;;;;;71.47;10.68;;;4.20;93.60;;;;;;5054485;28;20287;-79
2023/03/16 06:55:28;;;;;;;70.20;8.53;;;4.30;92.00;;;;;;5055684;28;20716;-79
2023/03/16 06:57:54;;;;;;;74.80;9.67;;;4.40;90.40;;;;;;5056304;28;20418;-79
2023/03/16 07:00:20;;;;;;;74.32;9.63;;;4.40;90.00;;;;;;5055389;28;20169;-79
2023/03/16 07:02:46;;;;;;;70.07;8.47;;;4.40;87.50;;;;;;5055829;28;20318;-79
2023/03/16 07:05:14;;;;;;;71.20;9.80;;;4.40;83.80;;;;;;5055690;28;20403;-79
2023/03/16 07:07:44;;;;;;;71.10;9.90;;;4.50;78.40;;;;;;5056030;28;20160;-79
2023/03/16 07:10:16;;;;;;;70.25;8.45;;;4.50;74.40;;;;;;5055576;28;20632;-79
2023/03/16 07:12:42;;;;;;;70.05;8.00;;;4.50;71.30;;;;;;5055316;28;20256;-79
2023/03/16 07:15:09;;;;;;;70.68;8.80;;;4.60;72.40;;;;;;5055245;28;20188;-79
2023/03/16 07:17:34;;;;;;;69.03;7.85;;;4.60;69.40;;;;;;5055664;28;20180;-79
2023/03/16 07:20:04;;;;;;;70.27;8.60;;;4.70;67.80;;;;;;5053813;28;20172;-79
2023/03/16 07:22:31;;;;;;;73.28;8.27;;;4.70;68.50;;;;;;5055490;28;20203;-79
2023/03/16 07:24:57;;;;;;;73.05;8.38;;;4.70;66.00;;;;;;5055496;28;20176;-79
2023/03/16 07:27:23;;;;;;;68.75;8.15;;;4.70;67.10;;;;;;5055318;28;20187;-79
2023/03/16 07:29:53;;;;;;;70.18;7.72;;;4.80;63.80;;;;;;5055631;28;20160;-79
2023/03/16 07:32:20;;;;;;;70.28;8.07;;;4.90;64.90;;;;;;5055201;28;20253;-79
2023/03/16 07:34:46;;;;;;;69.60;7.75;;;4.90;60.20;;;;;;5055520;28;20552;-79
2023/03/16 07:37:12;;;;;;;73.67;8.20;;;5.00;59.30;;;;;;5055293;28;20169;-79
2023/03/16 07:39:41;;;;;;;69.37;7.93;;;5.10;55.40;;;;;;5054837;28;20403;-79
2023/03/16 07:42:07;;;;;;;71.38;7.50;;;5.20;53.20;;;;;;5054866;28;20192;-79
2023/03/16 07:44:33;;;;;;;68.32;8.15;;;5.20;54.60;;;;;;5055784;28;20203;-79
2023/03/16 07:46:58;;;;;;;72.30;8.23;;;5.30;53.90;;;;;;5057132;28;20173;-79
2023/03/16 07:49:24;;;;;;;69.10;7.97;;;5.40;49.80;;;;;;5052446;28;20168;-79
2023/03/16 07:51:50;;;;;;;71.40;7.90;;;5.40;51.30;;;;;;5059104;28;20248;-79
2023/03/16 07:54:16;;;;;;;68.97;8.03;;;5.50;49.70;;;;;;5058816;28;20470;-79
2023/03/16 07:56:41;;;;;;;69.97;8.43;;;5.60;46.90;;;;;;5058959;28;20464;-79
2023/03/16 07:59:07;;;;;;;70.80;8.53;;;5.50;45.20;;;;;;5049764;28;20411;-79
2023/03/16 08:01:33;;;;;;;70.47;8.83;;;5.60;46.00;;;;;;5059093;28;20156;-79
2023/03/16 08:04:00;;;;;;;69.77;7.80;;;5.60;45.30;;;;;;5058644;28;20255;-79
2023/03/16 08:06:27;;;;;;;72.55;8.93;;;5.70;39.10;;;;;;5059485;28;20403;-79
2023/03/16 08:08:53;;;;;;;70.22;8.27;;;5.70;42.40;;;;;;5055738;28;20172;-79
2023/03/16 08:11:24;;;;;;;72.63;8.07;;;5.80;43.50;;;;;;5058741;28;20184;-79
2023/03/16 08:13:55;;;;;;;70.80;7.75;;;5.90;41.80;;;;;;5058785;28;20185;-79
2023/03/16 08:16:22;;;;;;;70.10;7.75;;;5.90;41.00;;;;;;5058809;28;20148;-79
2023/03/16 08:18:49;;;;;;;71.22;8.70;;;6.00;40.60;;;;;;5058575;28;20164;-79
2023/03/16 08:21:16;;;;;;;69.63;7.53;;;6.00;35.20;;;;;;5050317;28;20222;-79
2023/03/16 08:23:46;;;;;;;69.82;7.88;;;6.00;34.80;;;;;;5058264;28;20181;-79
2023/03/16 08:26:11;;;;;;;69.10;7.10;;;6.10;35.30;;;;;;5058839;28;20141;-79
2023/03/16 08:28:37;;;;;;;72.13;7.43;;;6.10;29.60;;;;;;5058463;28;20302;-79
2023/03/16 08:31:06;;;;;;;72.17;8.13;;;6.20;33.80;;;;;;5058367;28;20160;-79
2023/03/16 08:33:34;;;;;;;71.40;7.13;;;6.30;32.00;;;;;;5058612;28;20192;-79
2023/03/16 08:36:07;;;;;;;72.85;8.55;;;6.30;27.50;;;;;;5058206;28;20180;-79
2023/03/16 08:38:34;;;;;;;71.15;7.43;;;6.40;32.60;;;;;;5058842;28;20216;-79
2023/03/16 08:41:00;;;;;;;70.35;7.80;;;6.30;29.00;;;;;;5056306;28;20164;-79
2023/03/16 08:43:27;;;;;;;68.05;6.55;;;6.40;27.60;;;;;;5057815;28;20243;-79
2023/03/16 08:45:52;;;;;;;69.93;7.55;;;6.40;26.10;;;;;;5058137;28;20161;-79
2023/03/16 08:48:19;;;;;;;68.80;7.77;;;6.40;25.20;;;;;;5058082;28;20172;-79
2023/03/16 08:50:48;;;;;;;68.10;7.10;;;6.50;28.50;;;;;;5054099;28;20199;-79
2023/03/16 08:53:14;;;;;;;68.22;7.10;;;6.50;28.00;;;;;;5058066;28;20260;-79
2023/03/16 08:55:40;;;;;;;71.18;7.10;;;6.40;27.30;;;;;;5057650;28;20195;-79
2023/03/16 08:58:08;;;;;;;68.30;6.85;;;6.50;26.50;;;;;;5056803;28;20164;-79
2023/03/16 09:00:34;;;;;;;69.15;6.57;;;6.50;24.70;;;;;;5057619;28;20167;-79
2023/03/16 09:03:01;;;;;;;69.30;7.30;;;6.50;25.30;;;;;;5057968;28;20660;-79
2023/03/16 09:05:27;;;;;;;67.18;6.38;;;6.50;24.50;;;;;;5057601;28;20767;-79
2023/03/16 09:07:53;;;;;;;73.88;8.77;;;6.50;22.80;;;;;;5058241;28;20662;-79
2023/03/16 09:10:21;;;;;;;73.20;8.50;;;6.60;24.20;;;;;;5057948;28;20168;-79
2023/03/16 09:12:48;;;;;;;70.25;7.60;;;6.70;22.30;;;;;;5053964;28;20199;-79
2023/03/16 09:15:14;;;;;;;70.05;7.40;;;6.80;19.80;;;;;;5050121;28;20242;-79
2023/03/16 09:17:41;;;;;;;67.00;5.57;;;6.90;16.30;;;;;;5057893;28;20161;-79
2023/03/16 09:20:09;;;;;;;70.95;7.15;;;6.90;13.90;;;;;;5057702;28;20410;-79
2023/03/16 09:22:36;;;;;;;69.43;7.05;;;6.90;14.00;;;;;;5052864;28;20529;-79
2023/03/16 09:25:05;;;;;;;69.15;7.50;;;7.10;17.00;;;;;;5057762;28;20167;-79
2023/03/16 09:27:37;;;;;;;72.88;7.40;;;7.20;13.00;;;;;;5057783;28;20699;-79
2023/03/16 09:30:09;;;;;;;69.30;6.50;;;7.20;12.40;;;;;;5057557;28;20152;-79
2023/03/16 09:32:36;;;;;;;68.30;6.55;;;7.30;12.60;;;;;;5057223;28;20188;-79
2023/03/16 09:35:02;;;;;;;69.82;7.70;;;7.30;9.30;;;;;;5057624;28;20188;-79
2023/03/16 09:37:28;;;;;;;69.68;7.22;;;7.40;10.40;;;;;;5051216;28;20206;-79
2023/03/16 09:39:53;;;;;;;68.90;6.97;;;7.50;11.00;;;;;;5057244;28;20164;-79
2023/03/16 09:42:35;;;;;;;69.83;7.17;;;7.60;9.50;;;;;;5057248;28;20199;-79
2023/03/16 09:45:34;;;;;;;71.20;5.90;;;7.60;4.60;;;;;;5057273;28;20160;-79
2023/03/16 09:48:03;;;;;;;77.40;6.65;;;7.60;5.60;;;;;;5056822;28;20164;-79
2023/03/16 09:50:37;;;;;;;69.80;6.45;;;7.70;6.60;;;;;;5057054;28;20291;-79
2023/03/16 09:53:28;;;;;;;68.97;7.05;;;7.80;5.30;;;;;;5047481;28;20327;-79
2023/03/16 09:56:23;;;;;;;68.50;6.60;;;7.80;6.50;;;;;;5057055;28;20702;-79
2023/03/16 10:04:20;;;;;;;69.25;6.30;;;7.90;2.90;;;;;;5054159;28;20212;-79
2023/03/16 10:07:11;;;;;;;76.88;7.20;;;7.90;2.50;;;;;;5037718;28;20248;-79
2023/03/16 10:09:46;;;;;;;69.38;7.13;;;7.90;1.80;;;;;;5037187;28;20178;-79
2023/03/16 10:12:14;;;;;;;68.63;6.43;;;7.90;1.00;;;;;;5055758;28;20202;-79
2023/03/16 10:14:57;;;;;;;70.30;6.60;;;7.90;1.00;;;;;;5055635;28;20196;-79
2023/03/16 10:17:28;;;;;;;69.22;7.00;;;7.90;6.40;;;;;;5055566;28;20168;-79
2023/03/16 10:20:07;;;;;;;70.32;7.95;;;8.10;5.70;;;;;;5055362;28;20145;-79
2023/03/16 10:22:37;;;;;;;69.70;7.07;;;8.10;4.10;;;;;;5055209;28;20182;-79
2023/03/16 10:25:14;;;;;;;70.07;7.70;;;8.10;1.90;;;;;;5054915;28;20168;-79
2023/03/16 10:27:42;;;;;;;70.47;7.57;;;8.20;1.00;;;;;;5055665;28;20160;-79
2023/03/16 10:30:36;;;;;;;69.15;7.60;;;8.30;1.00;;;;;;5055247;28;20638;-79
2023/03/16 10:33:22;;;;;;;75.60;8.23;;;8.30;1.00;;;;;;5055334;28;20219;-79
2023/03/16 10:35:50;;;;;;;69.43;6.65;;;8.40;1.00;;;;;;5036788;28;20199;-79
2023/03/16 10:38:32;;;;;;;70.30;7.18;;;8.70;1.00;;;;;;5055121;28;20156;-79
2023/03/16 10:40:58;;;;;;;75.47;7.13;;;8.80;1.00;;;;;;5055525;28;20302;-79
2023/03/16 10:43:25;;;;;;;71.85;7.53;;;8.90;1.00;;;;;;5054697;28;20259;-79
2023/03/16 10:45:50;;;;;;;69.97;6.93;;;9.00;1.00;;;;;;5054928;28;20214;-79
2023/03/16 10:48:19;;;;;;;68.00;6.93;;;9.00;1.00;;;;;;5054850;28;20169;-79
2023/03/16 10:50:52;;;;;;;70.60;6.95;;;9.10;1.00;;;;;;5036853;28;20255;-79
2023/03/16 10:53:28;;;;;;;68.55;6.45;;;9.20;1.00;;;;;;5054930;28;20651;-79
2023/03/16 10:56:11;;;;;;;67.80;6.50;;;9.10;1.00;;;;;;5036861;28;20196;-79
2023/03/16 10:58:41;;;;;;;71.68;5.97;;;9.00;1.00;;;;;;5037014;28;20175;-79
2023/03/16 11:01:27;;;;;;;68.43;6.10;;;9.10;1.00;;;;;;5037387;28;20659;-79
2023/03/16 11:03:57;;;;;;;69.20;6.90;;;9.30;1.00;;;;;;5037035;28;20660;-79
2023/03/16 11:06:29;;;;;;;68.72;7.30;;;9.40;1.00;;;;;;5055145;28;20618;-79
2023/03/16 11:09:07;;;;;;;71.57;7.60;;;9.50;1.00;;;;;;5054426;28;20153;-79
2023/03/16 11:11:33;;;;;;;72.57;7.90;;;9.60;1.00;;;;;;5036715;28;20551;-79
2023/03/16 11:14:03;;;;;;;71.35;7.25;;;9.70;1.00;;;;;;5054510;28;20238;-79
2023/03/16 11:17:13;;;;;;;71.05;7.30;;;9.90;1.00;;;;;;5054963;28;20180;-79
2023/03/16 11:19:59;;;;;;;68.32;6.40;;;10.10;1.00;;;;;;5035026;28;20203;-79
2023/03/16 11:22:26;;;;;;;70.35;7.13;;;10.30;1.00;;;;;;5040402;28;20268;-78
2023/03/16 11:25:08;;;;;;;69.70;7.20;;;10.50;1.00;;;;;;5058173;28;20171;-79
2023/03/16 11:27:53;;;;;;;68.32;6.55;;;10.50;1.00;;;;;;5058131;28;20188;-79
2023/03/16 11:30:34;;;;;;;68.63;6.32;;;10.70;1.00;;;;;;5058707;28;20726;-79
2023/03/16 11:33:14;;;;;;;70.75;7.03;;;10.80;1.00;;;;;;5040416;28;20192;-79
2023/03/16 11:35:56;;;;;;;72.13;8.55;;;10.90;1.00;;;;;;5058606;28;20184;-79
2023/03/16 11:39:01;;;;;;;71.20;6.50;;;11.00;1.00;;;;;;5040400;28;20164;-79
2023/03/16 11:44:31;;;;;;;68.15;6.70;;;11.10;1.00;;;;;;5175723;22;20228;-86
2023/03/16 11:47:05;;;;;;;71.18;7.13;;;11.20;1.00;;;;;;5059861;28;20228;-86
2023/03/16 11:49:57;;;;;;;70.35;5.90;;;11.20;1.00;;;;;;5060867;28;20141;-86
2023/03/16 11:52:52;;;;;;;67.40;5.75;;;11.30;1.00;;;;;;5049776;28;20196;-86
2023/03/16 11:55:50;;;;;;;68.90;5.50;;;11.40;1.00;;;;;;5038293;28;20217;-86
2023/03/16 11:58:31;;;;;;;72.18;6.00;;;11.60;1.00;;;;;;5037478;28;20184;-86
2023/03/16 12:01:17;;;;;;;67.40;5.47;;;11.80;1.00;;;;;;5059035;28;20673;-86
2023/03/16 12:04:00;;;;;;;69.25;5.57;;;11.80;1.00;;;;;;5055149;28;20224;-86
2023/03/16 12:06:52;;;;;;;64.93;4.35;;;11.90;1.00;;;;;;5052814;28;20160;-86
2023/03/16 12:09:47;;;;;;;67.47;4.70;;;11.80;1.00;;;;;;5058530;28;20160;-86
2023/03/16 12:12:33;;;;;;;66.55;4.82;;;11.70;1.00;;;;;;5050740;28;20189;-86
2023/03/16 12:15:04;;;;;;;66.10;5.40;;;11.80;1.00;;;;;;5056492;28;20196;-86
2023/03/16 12:17:36;;;;;;;66.97;4.68;;;11.80;1.00;;;;;;5051603;28;20172;-86
2023/03/16 12:20:12;;;;;;;66.93;5.28;;;11.80;1.00;;;;;;5058327;28;20141;-86
2023/03/16 12:22:48;;;;;;;66.45;5.93;;;12.00;1.00;;;;;;5058733;28;20180;-86
2023/03/16 12:25:23;;;;;;;69.07;4.65;;;12.10;1.00;;;;;;5057917;28;20234;-86
2023/03/16 12:27:53;;;;;;;66.40;4.65;;;11.90;1.00;;;;;;5055556;28;20164;-86
2023/03/16 12:30:43;;;;;;;67.80;4.50;;;11.80;1.00;;;;;;5050427;28;20175;-86
2023/03/16 12:33:21;;;;;;;65.70;4.50;;;11.70;1.00;;;;;;5056126;28;20200;-86
2023/03/16 12:36:15;;;;;;;66.35;4.70;;;12.00;1.00;;;;;;5057944;28;20176;-86
2023/03/16 12:38:52;;;;;;;65.00;4.10;;;11.80;1.00;;;;;;5057805;28;20140;-86
2023/03/16 12:41:50;;;;;;;66.85;5.18;;;11.70;1.00;;;;;;5050527;28;20632;-86
2023/03/16 12:44:36;;;;;;;65.88;4.75;;;11.80;1.00;;;;;;5057917;28;20203;-86
2023/03/16 12:47:22;;;;;;;67.07;5.18;;;11.80;1.00;;;;;;5057236;28;20187;-87
2023/03/16 12:49:50;;;;;;;67.95;5.00;;;11.70;1.00;;;;;;5026574;28;20173;-86
2023/03/16 12:52:16;;;;;;;65.95;4.55;;;11.70;1.00;;;;;;5049439;28;20180;-86
2023/03/16 12:54:50;;;;;;;65.90;4.68;;;11.70;1.00;;;;;;5057309;28;20164;-87
2023/03/16 12:57:17;;;;;;;68.05;4.57;;;11.70;1.00;;;;;;5049463;28;20173;-86
2023/03/16 12:59:46;;;;;;;66.43;4.60;;;12.00;1.00;;;;;;5055417;28;20710;-86
2023/03/16 13:02:18;;;;;;;64.90;4.10;;;12.10;1.00;;;;;;5056495;28;20184;-86
2023/03/16 13:04:47;;;;;;;65.70;4.50;;;12.10;1.00;;;;;;5056170;28;20183;-86
2023/03/16 13:07:20;;;;;;;68.15;4.90;;;12.00;1.00;;;;;;5048147;28;20251;-86
2023/03/16 13:10:12;;;;;;;66.25;4.15;;;12.00;1.00;;;;;;5057880;28;20153;-85
2023/03/16 13:12:42;;;;;;;65.97;4.53;;;11.90;1.00;;;;;;5051862;28;20237;-86
2023/03/16 13:15:18;;;;;;;65.65;4.63;;;11.90;1.00;;;;;;5056590;28;20164;-86
2023/03/16 13:17:46;;;;;;;68.90;4.75;;;12.10;1.00;;;;;;5052842;28;20574;-86
2023/03/16 13:20:12;;;;;;;72.97;4.85;;;12.00;1.00;;;;;;5056846;28;20171;-86
2023/03/16 13:22:46;;;;;;;66.10;4.23;;;12.10;1.00;;;;;;5057034;28;20263;-86
2023/03/16 13:25:38;;;;;;;66.95;4.57;;;12.10;1.00;;;;;;5056567;28;20187;-86
2023/03/16 13:28:05;;;;;;;70.78;4.50;;;12.10;1.00;;;;;;5056723;28;20149;-86
2023/03/16 13:30:35;;;;;;;65.90;4.35;;;12.10;1.00;;;;;;5055931;28;20230;-86
2023/03/16 13:33:22;;;;;;;67.43;4.53;;;12.00;1.00;;;;;;5054754;28;20188;-86
2023/03/16 13:35:50;;;;;;;69.38;5.03;;;12.20;1.00;;;;;;5054497;28;20190;-86
2023/03/16 13:38:21;;;;;;;65.13;4.70;;;12.30;1.00;;;;;;5032999;28;20597;-86
2023/03/16 13:40:53;;;;;;;64.60;4.43;;;12.40;1.00;;;;;;5056011;28;20172;-86
2023/03/16 13:43:22;;;;;;;65.60;4.55;;;12.30;1.00;;;;;;5055971;28;20206;-86
2023/03/16 13:45:51;;;;;;;68.05;4.55;;;12.40;1.00;;;;;;5054842;28;20288;-86
2023/03/16 13:48:19;;;;;;;65.05;3.90;;;12.30;1.00;;;;;;5056794;28;20167;-86
2023/03/16 13:50:56;;;;;;;67.95;5.10;;;12.20;1.00;;;;;;5039009;28;20657;-86
2023/03/16 13:53:27;;;;;;;67.70;4.35;;;12.00;1.00;;;;;;5050612;28;20188;-86
2023/03/16 13:55:54;;;;;;;66.43;4.80;;;12.00;1.00;;;;;;5055119;28;20164;-86
2023/03/16 13:58:25;;;;;;;65.32;3.97;;;12.00;1.00;;;;;;5050081;28;20169;-86
2023/03/16 14:01:02;;;;;;;66.45;3.80;;;12.00;1.00;;;;;;5055095;28;20175;-86
2023/03/16 14:03:34;;;;;;;65.85;3.80;;;12.10;1.00;;;;;;5050336;28;20197;-86
2023/03/16 14:06:02;;;;;;;64.95;4.30;;;12.20;1.00;;;;;;5056387;28;20210;-86
2023/03/16 14:08:29;;;;;;;69.40;5.50;;;12.20;1.00;;;;;;5050264;28;20171;-86
2023/03/16 14:10:56;;;;;;;65.38;4.22;;;12.20;1.00;;;;;;5056818;28;20666;-86
2023/03/16 14:13:32;;;;;;;65.55;4.50;;;12.30;1.00;;;;;;5055806;28;20180;-85
2023/03/16 14:16:07;;;;;;;67.22;4.47;;;12.20;1.00;;;;;;5055029;28;20169;-86
2023/03/16 14:18:45;;;;;;;69.50;4.35;;;12.20;1.00;;;;;;5055592;28;20178;-86
2023/03/16 14:21:22;;;;;;;66.70;4.40;;;12.20;1.00;;;;;;5056344;28;20155;-87
2023/03/16 14:23:56;;;;;;;66.85;4.05;;;12.30;1.00;;;;;;5056742;28;20188;-86
2023/03/16 14:26:23;;;;;;;66.95;5.55;;;12.30;1.00;;;;;;5049797;28;20170;-86
2023/03/16 14:29:15;;;;;;;65.25;3.85;;;12.30;1.00;;;;;;5056722;28;20161;-86
2023/03/16 14:31:40;;;;;;;64.40;3.53;;;12.30;1.00;;;;;;5051264;28;20632;-86
2023/03/16 14:34:27;;;;;;;66.20;3.70;;;12.30;1.00;;;;;;5047195;28;20168;-86
2023/03/16 14:37:18;;;;;;;68.03;4.50;;;12.40;1.00;;;;;;5055356;28;20165;-86
2023/03/16 14:40:24;;;;;;;66.88;4.10;;;12.50;1.00;;;;;;5054970;28;20196;-86
2023/03/16 14:42:56;;;;;;;70.85;4.13;;;12.60;1.00;;;;;;5051835;28;20215;-86
2023/03/16 14:45:51;;;;;;;67.50;6.03;;;12.60;1.00;;;;;;5059306;28;20190;-85
2023/03/16 14:48:41;;;;;;;67.68;5.18;;;12.60;1.00;;;;;;5046907;28;20160;-86
2023/03/16 14:51:40;;;;;;;65.70;4.28;;;12.60;1.00;;;;;;5059809;28;20218;-86
2023/03/16 14:54:25;;;;;;;66.00;3.97;;;12.60;1.00;;;;;;5058455;28;20286;-85
2023/03/16 14:57:37;;;;;;;65.00;3.75;;;12.70;1.00;;;;;;5063232;28;20210;-86
2023/03/16 15:04:13;;;;;;;;;;;;;;;;;;;;;
2023/03/16 15:11:00;;;;;;;65.65;4.30;;;12.60;1.00;;;;;;5063736;28;20159;-87
2023/03/16 15:16:41;;;;;;;69.32;4.22;;;12.50;1.00;;;;;;4166263;26;20814;-86
2023/03/16 15:19:57;;;;;;;65.60;3.53;;;12.60;1.00;;;;;;5036457;28;20242;-86
2023/03/16 15:22:57;;;;;;;70.78;4.05;;;12.70;1.00;;;;;;5093030;22;20232;-87
2023/03/16 15:25:46;;;;;;;67.28;4.25;;;12.60;1.00;;;;;;5059985;28;20262;-86
2023/03/16 15:38:28;;;;;;;66.00;4.10;;;12.50;1.00;;;;;;5028066;28;20180;-86
2023/03/16 15:47:23;;;;;;;65.28;4.63;;;12.50;1.00;;;;;;5060687;28;20529;-86
2023/03/16 15:49:54;;;;;;;65.20;4.05;;;12.50;1.00;;;;;;4959379;28;20238;-86
2023/03/16 15:52:52;;;;;;;66.78;4.53;;;12.40;1.00;;;;;;5043241;28;20193;-87
2023/03/16 15:55:46;;;;;;;67.15;4.70;;;12.40;1.00;;;;;;5042832;28;20488;-87
2023/03/16 15:58:26;;;;;;;66.80;4.88;;;12.30;1.00;;;;;;5053746;28;20188;-86
2023/03/16 16:00:59;;;;;;;67.90;4.40;;;12.30;1.00;;;;;;5043041;28;20220;-86
2023/03/16 16:03:34;;;;;;;66.32;4.75;;;12.30;1.00;;;;;;5042588;28;20551;-86
2023/03/16 16:06:29;;;;;;;;;;;;;;;;;;;;;
2023/03/16 16:09:04;;;;;;;67.05;4.78;;;12.20;1.00;;;;;;5061758;28;20251;-86
2023/03/16 16:11:51;;;;;;;66.43;5.10;;;12.20;1.00;;;;;;5060674;28;20148;-86
2023/03/16 16:14:45;;;;;;;67.43;6.03;;;12.20;1.00;;;;;;5061278;28;20164;-86
2023/03/16 16:17:28;;;;;;;68.20;5.55;;;12.10;1.00;;;;;;5039859;28;20184;-86
2023/03/16 16:20:26;;;;;;;67.05;5.35;;;12.10;1.00;;;;;;5041757;28;20161;-86
2023/03/16 16:23:13;;;;;;;66.90;5.10;;;12.00;1.00;;;;;;5042372;28;20641;-86
2023/03/16 16:26:11;;;;;;;67.55;5.45;;;12.00;1.00;;;;;;5042440;28;20211;-86
2023/03/16 16:32:26;;;;;;;70.32;6.10;;;11.90;1.00;;;;;;5022601;28;20563;-86
2023/03/16 16:35:11;;;;;;;67.30;5.55;;;11.90;1.00;;;;;;5042922;28;20156;-86
2023/03/16 16:37:50;;;;;;;67.05;5.35;;;11.80;1.00;;;;;;5043743;28;20263;-86
2023/03/16 16:40:44;;;;;;;69.25;5.28;;;11.80;1.00;;;;;;5042489;28;20225;-86
2023/03/16 16:43:40;;;;;;;68.25;5.80;;;11.80;1.00;;;;;;5041580;28;20660;-86
2023/03/16 16:46:38;;;;;;;70.28;5.53;;;11.60;1.00;;;;;;5042209;28;20208;-88
2023/03/16 16:49:33;;;;;;;66.70;4.85;;;11.60;1.00;;;;;;5058990;28;20188;-86
2023/03/16 16:52:00;;;;;;;68.30;5.22;;;11.50;1.00;;;;;;5042706;28;20188;-86
2023/03/16 16:54:40;;;;;;;;;;;;;;;;;;;;;
2023/03/16 16:57:41;;;;;;;68.25;5.35;;;11.50;1.00;;;;;;5060297;28;20243;-86
2023/03/16 17:00:36;;;;;;;66.63;5.13;;;11.40;1.00;;;;;;5059811;28;20247;-86
2023/03/16 17:03:31;;;;;;;68.80;5.95;;;11.30;1.00;;;;;;5060352;28;20664;-86
2023/03/16 17:06:01;;;;;;;67.15;5.18;;;11.30;1.00;;;;;;5042163;28;20200;-85
2023/03/16 17:08:35;;;;;;;68.65;5.60;;;11.30;1.00;;;;;;5058861;28;20177;-86
2023/03/16 17:11:21;;;;;;;;;;;;;;;;;;;;;
2023/03/16 17:13:57;;;;;;;67.22;6.00;;;11.20;1.00;;;;;;5056956;28;20248;-86
2023/03/16 17:16:46;;;;;;;69.63;6.25;;;11.10;1.00;;;;;;5041452;28;20176;-86